Terminal Aerodrome Forecast
Issued by NWS

Home | Current Version | Previous Version | Graphics & Text | Print | Product List | Glossary On
Versions: 1 2 3 4 5 6 7 8 9 10 11 12 13 14 15 16 17 18 19 20 21
000
FTUS43 KBIS 122335
TAFDIK
TAF
KDIK 122335Z 1300/1324 27018G26KT P6SM FEW250 WS020/30050KT
     FM130800 31026G39KT P6SM BKN080
     FM131500 31027G39KT P6SM BKN020
     FM132100 32021G30KT P6SM BKN040=

USA.gov is the U.S. government's official web portal to all federal, state and local government web resources and services.